tititudorancea.com
Station Historical Data
Daily Summary for September 10, 2018 Units:  Metric    English   Both
« Previous Day
Next Day »
Daily Weekly Monthly Yearly Custom
  High: Low: Average:
Temperature: -17.8 °C 5.8 °C 10.9 °C
Dew Point: -17.8 °C 4.9 °C 8.4 °C
Humidity: Humidity % 63 % 85 %
Wind Speed: 0 km/h 0 km/h 4.8 km/h
Wind Gust: 0 km/h - -
Wind:- - SE
Pressure: 0 hPa 1019.5 hPa -
Precipitation: 0.2 mm    
Historical Graphs
 
 
Ararat weather Find more about Weather in Ararat, AU


 



 


Tabular Data for September 10, 2018
Time Temperature Dew Point Pressure Wind Wind Speed Wind Gust Humidity Rainfall Rate (Hourly)
-17.8 °C -17.8 °C 0 hPa Calm     Humidity % 0 mm
00:04 7.6 °C 6.6 °C 1023.9 hPa Calm     93 % 0 mm
00:09 7.7 °C 6.6 °C 1023.9 hPa WSW 3.2 km/h 0.3 km/h 93 % 0 mm
00:14 7.6 °C 6.6 °C 1023.9 hPa Calm     93 % 0 mm
00:19 7.6 °C 6.6 °C 1023.9 hPa Calm     93 % 0 mm
00:24 7.4 °C 6.3 °C 1023.9 hPa Calm     93 % 0 mm
00:29 7.2 °C 6.2 °C 1023.9 hPa Calm     93 % 0 mm
00:34 7.1 °C 6.1 °C 1023.9 hPa Calm     93 % 0 mm
00:39 6.9 °C 5.9 °C 1023.9 hPa WSW 5.6 km/h 4 km/h 93 % 0 mm
00:44 7 °C 5.9 °C 1023.6 hPa WSW 3.7 km/h 0.2 km/h 93 % 0 mm
00:49 6.9 °C 5.9 °C 1023.9 hPa Calm     93 % 0 mm
00:54 6.9 °C 5.9 °C 1023.9 hPa Calm     93 % 0 mm
00:59 7 °C 6.1 °C 1023.9 hPa SW 3.7 km/h 2.6 km/h 94 % 0 mm
01:04 7.1 °C 6.2 °C 1023.9 hPa North 7.4 km/h 6.6 km/h 94 % 0 mm
01:09 7.1 °C 6 °C 1024.3 hPa SW 5.6 km/h 2.4 km/h 93 % 0 mm
01:14 7 °C 6.1 °C 1023.9 hPa North 3.7 km/h 1.9 km/h 94 % 0 mm
01:19 7 °C 6.1 °C 1023.9 hPa SW 1.9 km/h 0.2 km/h 94 % 0 mm
01:24 7.1 °C 6.2 °C 1023.9 hPa SW 3.7 km/h 1.3 km/h 94 % 0 mm
01:29 7.1 °C 6.2 °C 1023.9 hPa Calm     94 % 0 mm
01:34 7.1 °C 6.2 °C 1023.9 hPa Calm     94 % 0 mm
01:39 7.2 °C 6.3 °C 1023.9 hPa WSW 3.2 km/h 2.7 km/h 94 % 0 mm
01:44 7.3 °C 6.4 °C 1023.9 hPa Calm   1.1 km/h 94 % 0 mm
01:49 7.2 °C 6.2 °C 1023.9 hPa Calm     93 % 0 mm
01:54 7.1 °C 6.2 °C 1023.6 hPa Calm     94 % 0 mm
01:59 6.9 °C 5.8 °C 1023.9 hPa North 4.8 km/h 3.4 km/h 93 % 0 mm
02:04 6.9 °C 6 °C 1023.9 hPa North 5.6 km/h 3.1 km/h 94 % 0 mm
02:09 6.7 °C 5.6 °C 1023.9 hPa Calm     93 % 0 mm
02:14 6.6 °C 5.7 °C 1023.9 hPa North 3.7 km/h 1 km/h 94 % 0 mm
02:19 6.5 °C 5.6 °C 1023.6 hPa North 3.7 km/h 2.1 km/h 94 % 0 mm
02:24 6.4 °C 5.6 °C 1023.9 hPa SW 6.4 km/h 6.1 km/h 94 % 0 mm
02:29 6.6 °C 5.8 °C 1023.6 hPa WSW 5.6 km/h 1.9 km/h 95 % 0 mm
02:34 6.6 °C 5.7 °C 1023.6 hPa WSW 1.9 km/h   94 % 0 mm
02:39 6.6 °C 5.7 °C 1023.6 hPa Calm     94 % 0 mm
02:44 6.6 °C 5.7 °C 1023.6 hPa Calm     94 % 0 mm
02:49 6.4 °C 5.6 °C 1023.6 hPa WSW 5.6 km/h 3.4 km/h 94 % 0 mm
02:54 6.4 °C 5.5 °C 1023.6 hPa WSW 5.6 km/h 3.1 km/h 94 % 0 mm
02:59 6.2 °C 5.3 °C 1023.6 hPa SW 3.2 km/h 0.3 km/h 94 % 0 mm
03:04 6.2 °C 5.3 °C 1023.6 hPa SW 3.7 km/h 0.3 km/h 94 % 0 mm
03:09 6.1 °C 5.2 °C 1023.6 hPa SW 3.7 km/h 0.6 km/h 94 % 0 mm
03:14 6 °C 5.1 °C 1023.2 hPa North 1.9 km/h 1 km/h 94 % 0 mm
03:19 5.9 °C 5 °C 1023.6 hPa Calm     94 % 0 mm
03:24 5.8 °C 4.9 °C 1023.6 hPa WSW 3.7 km/h 2.3 km/h 94 % 0 mm
03:29 5.8 °C 4.9 °C 1023.6 hPa WSW 3.7 km/h 1.9 km/h 94 % 0 mm
03:34 5.9 °C 5.2 °C 1023.6 hPa WSW 5.6 km/h 3.9 km/h 95 % 0 mm
03:39 6.1 °C 5.3 °C 1023.6 hPa North 5.6 km/h 2.4 km/h 95 % 0 mm
03:44 6.3 °C 5.6 °C 1023.6 hPa North 1.9 km/h 0.5 km/h 95 % 0 mm
03:49 6.3 °C 5.6 °C 1023.6 hPa Calm   1.4 km/h 95 % 0 mm
03:54 6.4 °C 5.7 °C 1023.6 hPa WSW 3.7 km/h 2.7 km/h 95 % 0 mm
03:59 6.5 °C 5.8 °C 1023.6 hPa Calm     95 % 0 mm
04:04 6.4 °C 5.5 °C 1023.6 hPa Calm     94 % 0 mm
04:09 6.4 °C 5.7 °C 1023.6 hPa SW 3.7 km/h 2.3 km/h 95 % 0 mm
04:14 6.4 °C 5.7 °C 1023.6 hPa Calm     95 % 0 mm
04:19 6.6 °C 5.8 °C 1023.6 hPa Calm     95 % 0 mm
04:24 6.8 °C 6.1 °C 1023.6 hPa SW 3.7 km/h 2.7 km/h 95 % 0 mm
04:29 6.9 °C 6.2 °C 1023.6 hPa Calm     95 % 0 mm
04:34 7.1 °C 6.3 °C 1023.6 hPa Calm     95 % 0 mm
04:39 7.1 °C 6.3 °C 1023.6 hPa Calm     95 % 0 mm
04:44 7.1 °C 6.4 °C 1023.6 hPa Calm     95 % 0 mm
04:49 7.1 °C 6.3 °C 1023.6 hPa Calm     95 % 0 mm
04:54 7 °C 6.3 °C 1023.9 hPa Calm     95 % 0 mm
04:59 7.1 °C 6.3 °C 1023.9 hPa Calm     95 % 0 mm
05:04 7.1 °C 6.4 °C 1023.9 hPa Calm     95 % 0 mm
05:09 7.2 °C 6.5 °C 1024.3 hPa WSW 5.6 km/h 4.3 km/h 95 % 0 mm
05:14 7.6 °C 7 °C 1024.3 hPa SW 5.6 km/h 0.3 km/h 96 % 0 mm
05:19 7.9 °C 7.3 °C 1024.3 hPa North 5.6 km/h 1.8 km/h 96 % 0 mm
05:24 8 °C 7.4 °C 1024.3 hPa Calm     96 % 0 mm
05:29 8.2 °C 7.6 °C 1024.3 hPa WSW 3.7 km/h 2.3 km/h 96 % 0 mm
05:34 8.4 °C 7.8 °C 1024.3 hPa WSW 3.7 km/h 1.6 km/h 96 % 0 mm
05:39 8.5 °C 7.9 °C 1024.3 hPa WSW 5.6 km/h 2.1 km/h 96 % 0.2 mm
05:44 8.7 °C 8.1 °C 1024.3 hPa WSW 5.6 km/h 5 km/h 96 % 0.2 mm
05:49 8.7 °C 8.1 °C 1024.3 hPa SW 5.6 km/h 3.4 km/h 96 % 0.2 mm
05:54 8.7 °C 7.9 °C 1024.3 hPa North 3.7 km/h 2.4 km/h 95 % 0.2 mm
05:59 8.8 °C 8 °C 1024.3 hPa WSW 5.6 km/h 4.2 km/h 95 % 0.2 mm
06:04 8.8 °C 8.1 °C 1024.3 hPa SW 5.6 km/h 5.5 km/h 95 % 0.2 mm
06:09 8.9 °C 8.1 °C 1024.6 hPa WSW 5.6 km/h 4.7 km/h 95 % 0.2 mm
06:14 8.9 °C 8.2 °C 1024.6 hPa WSW 3.7 km/h 2.4 km/h 95 % 0.2 mm
06:19 9.1 °C 8.4 °C 1024.6 hPa WSW 3.7 km/h 2.4 km/h 96 % 0.2 mm
06:24 9.1 °C 8.3 °C 1024.6 hPa WSW 3.7 km/h 2.1 km/h 95 % 0.2 mm
06:29 9.2 °C 8.4 °C 1024.6 hPa North 3.7 km/h 1.4 km/h 95 % 0.2 mm
06:34 9.2 °C 8.4 °C 1024.6 hPa WSW 5.6 km/h 4.8 km/h 95 % 0.2 mm
06:39 9.3 °C 8.5 °C 1024.6 hPa WSW 3.7 km/h 2.6 km/h 95 % 0 mm
06:44 9.3 °C 8.6 °C 1024.6 hPa SW 1.6 km/h 1 km/h 95 % 0 mm
06:49 9.3 °C 8.6 °C 1024.6 hPa Calm     95 % 0 mm
06:54 9.3 °C 8.6 °C 1024.9 hPa Calm     95 % 0 mm
06:59 9.4 °C 8.6 °C 1024.9 hPa Calm     95 % 0 mm
07:04 9.4 °C 8.6 °C 1024.9 hPa WSW 3.7 km/h 0.5 km/h 95 % 0 mm
07:09 9.4 °C 8.7 °C 1024.9 hPa WSW 3.7 km/h 0.6 km/h 95 % 0 mm
07:14 9.5 °C 8.7 °C 1024.9 hPa SW 4.8 km/h 2.3 km/h 95 % 0 mm
07:19 9.6 °C 8.8 °C 1024.9 hPa WSW 5.6 km/h 4 km/h 95 % 0 mm
07:24 9.6 °C 8.8 °C 1024.9 hPa WSW 5.6 km/h 2.4 km/h 95 % 0 mm
07:29 9.7 °C 8.9 °C 1024.9 hPa WSW 5.6 km/h 3.4 km/h 95 % 0 mm
07:34 9.8 °C 9.1 °C 1024.9 hPa SW 5.6 km/h 0.2 km/h 95 % 0 mm
07:39 9.9 °C 9.2 °C 1024.9 hPa Calm     95 % 0 mm
07:44 10.1 °C 9.3 °C 1025.3 hPa Calm     95 % 0 mm
07:49 10.2 °C 9.4 °C 1025.3 hPa WSW 3.7 km/h   95 % 0 mm
07:54 10.2 °C 9.4 °C 1025.3 hPa SW 4.8 km/h 1.6 km/h 95 % 0 mm
07:59 10.3 °C 9.5 °C 1025.3 hPa WSW 1.9 km/h   95 % 0 mm
08:04 10.3 °C 9.6 °C 1025.3 hPa Calm     95 % 0 mm
08:09 10.5 °C 9.7 °C 1025.3 hPa Calm     95 % 0 mm
08:14 10.6 °C 9.8 °C 1025.3 hPa WSW 5.6 km/h 3.5 km/h 95 % 0 mm
08:19 10.5 °C 9.6 °C 1025.3 hPa WSW 3.7 km/h 0.3 km/h 94 % 0 mm
08:24 10.6 °C 9.8 °C 1025.3 hPa Calm     95 % 0 mm
08:29 10.7 °C 9.8 °C 1025.3 hPa Calm     94 % 0 mm
08:34 10.8 °C 9.8 °C 1025.3 hPa WSW 1.9 km/h   94 % 0 mm
08:39 10.9 °C 9.9 °C 1025.6 hPa WSW 1.9 km/h 1.6 km/h 94 % 0 mm
08:42 10.9 °C 10 °C 1025.6 hPa Calm     94 % 0 mm
08:49 11.2 °C 10.3 °C 1025.6 hPa Calm     94 % 0 mm
08:54 11.4 °C 10.3 °C 1025.6 hPa WSW 5.6 km/h 0.5 km/h 93 % 0 mm
08:59 11.6 °C 10.3 °C 1025.6 hPa WSW 3.7 km/h 1.8 km/h 92 % 0 mm
09:04 11.7 °C 10.3 °C 1025.6 hPa WSW 5.6 km/h 1.8 km/h 91 % 0 mm
09:09 11.9 °C 10.5 °C 1025.6 hPa WSW 5.6 km/h 3.7 km/h 91 % 0 mm
09:14 12 °C 10.2 °C 1025.6 hPa WSW 5.6 km/h 2.4 km/h 89 % 0 mm
09:19 12 °C 10.1 °C 1025.6 hPa WSW 7.4 km/h 6.4 km/h 88 % 0 mm
09:24 12.3 °C 10.3 °C 1025.6 hPa WSW 5.6 km/h 1.3 km/h 88 % 0 mm
09:29 12.4 °C 10.1 °C 1025.3 hPa WSW 5.6 km/h 1.6 km/h 86 % 0 mm
09:34 12.7 °C 10.3 °C 1025.3 hPa WSW 5.6 km/h 4 km/h 85 % 0 mm
09:39 12.8 °C 10.2 °C 1025.3 hPa SW 1.9 km/h 1 km/h 84 % 0 mm
09:44 13.1 °C 10.1 °C 1025.3 hPa WSW 5.6 km/h 1 km/h 82 % 0 mm
09:49 13.4 °C 10.2 °C 1025.3 hPa SW 7.4 km/h 6.6 km/h 81 % 0 mm
09:54 13.3 °C 9.8 °C 1025.3 hPa SW 7.4 km/h 3.5 km/h 79 % 0 mm
09:59 13.2 °C 9.6 °C 1025.3 hPa WSW 5.6 km/h 0.6 km/h 79 % 0 mm
10:04 13.2 °C 9.7 °C 1025.3 hPa WSW 1.9 km/h 1 km/h 79 % 0 mm
10:09 13.7 °C 9.9 °C 1025.3 hPa WSW 7.4 km/h 5.8 km/h 78 % 0 mm
10:14 13.8 °C 9.7 °C 1025.3 hPa WSW 5.6 km/h 1.9 km/h 76 % 0 mm
10:19 14.2 °C 10 °C 1025.3 hPa WSW 3.7 km/h 0.2 km/h 76 % 0 mm
10:24 14.3 °C 9.7 °C 1024.9 hPa SW 6.4 km/h 6.1 km/h 74 % 0 mm
10:29 14.4 °C 9.8 °C 1024.9 hPa WSW 5.6 km/h 1.4 km/h 74 % 0 mm
10:34 14.9 °C 10.3 °C 1024.9 hPa WSW 8 km/h 7.2 km/h 74 % 0 mm
10:39 15.1 °C 10.1 °C 1024.9 hPa SE 9.7 km/h 4.2 km/h 72 % 0 mm
10:44 15.2 °C 10.2 °C 1024.9 hPa SE 5.6 km/h 1.6 km/h 72 % 0 mm
10:49 15.2 °C 9.9 °C 1024.9 hPa SE 3.7 km/h 0.6 km/h 71 % 0 mm
10:54 15.4 °C 10.4 °C 1024.9 hPa SE 8 km/h 3.5 km/h 72 % 0 mm
10:59 15.3 °C 10.1 °C 1024.9 hPa SE 5.6 km/h 1.9 km/h 71 % 0 mm
11:04 15.2 °C 9.7 °C 1024.9 hPa SE 3.7 km/h 2.3 km/h 70 % 0 mm
11:09 15.1 °C 9.9 °C 1024.9 hPa SE 3.7 km/h 0.3 km/h 71 % 0 mm
11:14 15.7 °C 10.4 °C 1024.9 hPa SE 1.9 km/h 0.5 km/h 71 % 0 mm
11:19 16.2 °C 10.3 °C 1024.9 hPa SE 6.4 km/h 4.2 km/h 68 % 0 mm
11:24 16.3 °C 10.6 °C 1024.9 hPa SE 9.3 km/h 6.1 km/h 69 % 0 mm
11:29 16.5 °C 10.6 °C 1024.9 hPa ESE 9.7 km/h 4.8 km/h 68 % 0 mm
11:34 16.4 °C 10.2 °C 1024.9 hPa ESE 5.6 km/h 2.6 km/h 67 % 0 mm
11:39 16.2 °C 10.5 °C 1024.9 hPa ESE 14.8 km/h 6.9 km/h 69 % 0 mm
11:44 15.8 °C 9.7 °C 1024.9 hPa ESE 13 km/h 8.5 km/h 67 % 0 mm
11:49 15.7 °C 9.8 °C 1024.6 hPa ESE 7.4 km/h 4.8 km/h 68 % 0 mm
11:54 16.1 °C 10.6 °C 1024.6 hPa ESE 8 km/h 7.6 km/h 70 % 0 mm
11:59 16.5 °C 10.6 °C 1024.6 hPa ESE 9.3 km/h 8.7 km/h 68 % 0 mm
12:04 16.7 °C 10.1 °C 1024.6 hPa East 9.3 km/h 7.7 km/h 65 % 0 mm
12:09 16.8 °C 10.8 °C 1024.6 hPa East 12.9 km/h 6.9 km/h 68 % 0 mm
12:14 16.8 °C 10.2 °C 1024.6 hPa East 7.4 km/h 7.6 km/h 65 % 0 mm
12:19 16.5 °C 10.3 °C 1024.6 hPa East 9.7 km/h 6.1 km/h 67 % 0 mm
12:24 16.6 °C 10.7 °C 1024.3 hPa East 9.3 km/h 7.1 km/h 68 % 0 mm
12:29 16.6 °C 10.2 °C 1024.3 hPa East 11.1 km/h 7.2 km/h 66 % 0 mm
12:34 16.4 °C 10 °C 1024.3 hPa East 9.3 km/h 6.9 km/h 66 % 0 mm
12:39 16.5 °C 10.6 °C 1024.3 hPa East 3.2 km/h 0.8 km/h 68 % 0 mm
12:44 17.3 °C 10.4 °C 1024.3 hPa East 9.3 km/h 7.1 km/h 64 % 0 mm
12:49 17.2 °C 10.3 °C 1024.3 hPa East 9.3 km/h 4.7 km/h 64 % 0 mm
12:54 17.1 °C 10.5 °C 1023.9 hPa East 8 km/h 5 km/h 65 % 0 mm
12:59 17.3 °C 10.4 °C 1023.9 hPa East 7.4 km/h 2.1 km/h 64 % 0 mm
13:04 17.5 °C 10.6 °C 1023.9 hPa East 9.3 km/h 5 km/h 64 % 0 mm
13:09 17.2 °C 10.6 °C 1023.6 hPa NE 5.6 km/h 5.6 km/h 65 % 0 mm
13:14 17.3 °C 10.2 °C 1023.6 hPa NE 5.6 km/h 1.9 km/h 63 % 0 mm
13:19 17.3 °C 10.2 °C 1023.6 hPa NE 5.6 km/h 4.5 km/h 63 % 0 mm
13:24 17.2 °C 10.3 °C 1023.6 hPa NE 7.4 km/h 6.8 km/h 64 % 0 mm
13:29 16.9 °C 10.3 °C 1023.2 hPa NE 5.6 km/h 1.6 km/h 65 % 0 mm
13:34 17.2 °C 10.3 °C 1023.2 hPa NE 9.3 km/h 6.3 km/h 64 % 0 mm
13:39 17.4 °C 10.3 °C 1023.2 hPa North 14.8 km/h 8.7 km/h 63 % 0 mm
13:44 17.3 °C 10.4 °C 1023.2 hPa North 7.4 km/h 3.2 km/h 64 % 0 mm
13:49 17.4 °C 10.6 °C 1023.2 hPa North 9.3 km/h 8 km/h 64 % 0 mm
13:54 17.2 °C 10.3 °C 1022.9 hPa North 11.1 km/h 8.9 km/h 64 % 0 mm
13:59 17.2 °C 10.3 °C 1022.9 hPa North 16.7 km/h 11.3 km/h 64 % 0 mm
14:04 17.3 °C 10.7 °C 1022.9 hPa NNW 11.1 km/h 6.4 km/h 65 % 0 mm
14:09 17.4 °C 10.6 °C 1022.9 hPa NNW 14.5 km/h 9.7 km/h 64 % 0 mm
14:14 17.4 °C 10.5 °C 1022.9 hPa NNW 7.4 km/h 5 km/h 64 % 0 mm
14:19 17.1 °C 10.5 °C 1022.9 hPa NNW 11.1 km/h 5.6 km/h 65 % 0 mm
14:24 17.3 °C 10.6 °C 1022.6 hPa North 9.3 km/h 5.8 km/h 65 % 0 mm
14:29 17.6 °C 10.5 °C 1022.6 hPa NNW 14.8 km/h 10 km/h 63 % 0 mm
14:34 17.7 °C 10.8 °C 1022.6 hPa North 14.8 km/h 11.7 km/h 64 % 0 mm
14:36 17.7 °C 10.8 °C 1022.6 hPa NNW 14.8 km/h 8.7 km/h 64 % 0 mm
18:04 14.8 °C 10.4 °C 1021.9 hPa North 9.3 km/h 3.4 km/h 75 % 0 mm
18:09 14.6 °C 10.4 °C 1021.9 hPa North 9.3 km/h 5.5 km/h 76 % 0 mm
18:14 14.4 °C 10.3 °C 1021.9 hPa North 5.6 km/h 1.6 km/h 76 % 0 mm
18:19 14.2 °C 10.2 °C 1021.9 hPa North 5.6 km/h 2.9 km/h 77 % 0 mm
18:24 14.1 °C 10.3 °C 1021.9 hPa North 5.6 km/h 2.4 km/h 78 % 0 mm
18:29 13.9 °C 10.2 °C 1021.9 hPa North 6.4 km/h 3.4 km/h 78 % 0 mm
18:34 13.8 °C 10.3 °C 1021.9 hPa North 5.6 km/h 3.5 km/h 79 % 0 mm
18:39 13.7 °C 10.1 °C 1021.9 hPa North 5.6 km/h 3.7 km/h 79 % 0 mm
18:44 13.5 °C 10.1 °C 1021.9 hPa North 5.6 km/h 1 km/h 80 % 0 mm
18:49 13.3 °C 9.9 °C 1021.9 hPa North 5.6 km/h 3.7 km/h 80 % 0 mm
18:54 13.2 °C 10 °C 1021.9 hPa North 5.6 km/h 2.4 km/h 81 % 0 mm
18:59 13 °C 10 °C 1021.9 hPa North 5.6 km/h 4.3 km/h 82 % 0 mm
19:04 12.9 °C 9.9 °C 1021.9 hPa North 5.6 km/h 4.8 km/h 82 % 0 mm
19:09 12.8 °C 9.8 °C 1021.9 hPa North 5.6 km/h 3.4 km/h 82 % 0 mm
19:14 12.7 °C 9.7 °C 1021.9 hPa North 5.6 km/h 3.1 km/h 82 % 0 mm
19:19 12.7 °C 9.8 °C 1021.9 hPa North 5.6 km/h 2.4 km/h 83 % 0 mm
19:24 12.6 °C 9.7 °C 1021.9 hPa North 7.4 km/h 5.6 km/h 83 % 0 mm
19:29 12.5 °C 9.7 °C 1021.9 hPa North 9.3 km/h 5.6 km/h 83 % 0 mm
19:34 12.3 °C 9.5 °C 1021.9 hPa North 5.6 km/h 3.7 km/h 83 % 0 mm
19:39 12.2 °C 9.4 °C 1021.9 hPa North 5.6 km/h 2.9 km/h 83 % 0 mm
19:44 12.1 °C 9.4 °C 1021.9 hPa North 5.6 km/h 1.4 km/h 84 % 0 mm
19:49 11.9 °C 9.3 °C 1021.9 hPa North 1.9 km/h 0.3 km/h 84 % 0 mm
19:54 11.8 °C 9.3 °C 1021.9 hPa Calm     85 % 0 mm
19:59 11.7 °C 9.3 °C 1021.9 hPa Calm     85 % 0 mm
20:04 11.6 °C 9.2 °C 1021.9 hPa Calm     85 % 0 mm
20:09 11.4 °C 9 °C 1021.9 hPa North 5.6 km/h 2.3 km/h 85 % 0 mm
20:14 11.3 °C 9 °C 1021.9 hPa North 5.6 km/h 3.1 km/h 86 % 0 mm
20:19 11.2 °C 8.9 °C 1021.9 hPa North 5.6 km/h 3.9 km/h 86 % 0 mm
20:24 11.1 °C 9.1 °C 1021.9 hPa North 3.7 km/h 1.3 km/h 87 % 0 mm
20:29 11 °C 8.9 °C 1021.9 hPa North 3.7 km/h 2.4 km/h 87 % 0 mm
20:34 11 °C 8.9 °C 1021.9 hPa North 3.7 km/h 1.4 km/h 87 % 0 mm
20:39 10.9 °C 8.9 °C 1021.9 hPa North 5.6 km/h 1.4 km/h 87 % 0 mm
20:44 11 °C 9.1 °C 1021.6 hPa North 4.8 km/h 2.9 km/h 88 % 0 mm
20:49 10.9 °C 9 °C 1021.6 hPa North 5.6 km/h 2.6 km/h 88 % 0 mm
20:54 10.7 °C 8.8 °C 1021.6 hPa North 3.7 km/h 2.3 km/h 88 % 0 mm
20:59 10.5 °C 8.4 °C 1021.6 hPa Calm     87 % 0 mm
21:04 10.3 °C 8.2 °C 1021.6 hPa North 5.6 km/h 3.7 km/h 87 % 0 mm
21:09 10.1 °C 8.2 °C 1021.6 hPa North 5.6 km/h 3.5 km/h 88 % 0 mm
21:14 9.9 °C 8.2 °C 1021.2 hPa North 5.6 km/h 2.9 km/h 89 % 0 mm
21:19 9.9 °C 8.2 °C 1021.2 hPa North 6.4 km/h 4.5 km/h 89 % 0 mm
21:24 10.2 °C 8.8 °C 1021.2 hPa North 5.6 km/h 5.1 km/h 91 % 0 mm
21:29 10.4 °C 8.8 °C 1021.2 hPa North 5.6 km/h 2.4 km/h 90 % 0 mm
21:34 10.5 °C 8.9 °C 1021.2 hPa North 6.4 km/h 4.7 km/h 90 % 0 mm
21:39 10.6 °C 9.1 °C 1021.2 hPa North 7.4 km/h 4.7 km/h 90 % 0 mm
21:44 10.6 °C 9.1 °C 1021.2 hPa North 3.7 km/h 0.6 km/h 90 % 0 mm
21:49 10.6 °C 8.8 °C 1020.9 hPa North 5.6 km/h 3.7 km/h 89 % 0 mm
21:54 10.5 °C 8.9 °C 1020.9 hPa North 5.6 km/h 3.7 km/h 90 % 0 mm
21:59 10.4 °C 8.9 °C 1020.9 hPa North 5.6 km/h 4.5 km/h 90 % 0 mm
22:04 10.3 °C 8.8 °C 1020.9 hPa North 5.6 km/h 2.9 km/h 90 % 0 mm
22:09 10.2 °C 8.5 °C 1020.9 hPa North 5.6 km/h 1.9 km/h 89 % 0 mm
22:14 10.1 °C 8.5 °C 1020.9 hPa North 5.6 km/h 2.3 km/h 90 % 0 mm
22:19 10 °C 8.4 °C 1020.9 hPa North 3.7 km/h 2.1 km/h 90 % 0 mm
22:24 9.8 °C 8.1 °C 1020.5 hPa North 3.7 km/h 2.6 km/h 89 % 0 mm
22:29 9.6 °C 8.1 °C 1020.5 hPa North 3.7 km/h 2.6 km/h 90 % 0 mm
22:34 9.4 °C 7.9 °C 1020.5 hPa North 5.6 km/h 3.2 km/h 90 % 0 mm
22:39 9.4 °C 7.8 °C 1020.5 hPa North 5.6 km/h 3.5 km/h 90 % 0 mm
22:44 9.4 °C 8.1 °C 1020.5 hPa North 3.7 km/h 1.1 km/h 91 % 0 mm
22:49 9.5 °C 8.1 °C 1020.5 hPa North 5.6 km/h 3.1 km/h 91 % 0 mm
22:54 9.6 °C 8.2 °C 1020.5 hPa North 5.6 km/h 3.9 km/h 91 % 0 mm
22:59 9.8 °C 8.6 °C 1020.5 hPa North 5.6 km/h 3.5 km/h 92 % 0 mm
23:04 10 °C 8.8 °C 1020.2 hPa North 5.6 km/h 3.1 km/h 92 % 0 mm
23:09 10 °C 8.6 °C 1020.2 hPa North 5.6 km/h 3.5 km/h 91 % 0 mm
23:14 9.9 °C 8.6 °C 1020.2 hPa North 3.7 km/h 1.1 km/h 91 % 0 mm
23:19 9.9 °C 8.5 °C 1020.2 hPa North 3.7 km/h 2.9 km/h 91 % 0 mm
23:24 9.8 °C 8.4 °C 1019.9 hPa North 3.7 km/h 1.8 km/h 91 % 0 mm
23:29 9.7 °C 8.3 °C 1019.9 hPa North 3.7 km/h 1.8 km/h 91 % 0 mm
23:34 9.6 °C 8.2 °C 1019.9 hPa North 5.6 km/h 1.8 km/h 91 % 0 mm
23:39 9.5 °C 8.1 °C 1019.9 hPa North 3.7 km/h 0.5 km/h 91 % 0 mm
23:44 9.4 °C 8 °C 1019.5 hPa Calm     91 % 0 mm
23:49 9.2 °C 7.7 °C 1019.9 hPa Calm     90 % 0 mm
23:54 9.1 °C 7.7 °C 1019.5 hPa North 3.7 km/h 3.2 km/h 91 % 0 mm
23:59 8.9 °C 7.6 °C 1019.5 hPa North 3.7 km/h 2.7 km/h 91 % 0 mm
Ararat Weather
Compliments of Weather Underground - 2 mb
Click here to send mail.


ABOUT

Live weather data from Ararat, Victoria, Australia, 3377
Data uploaded from Cumulus every 5 minutes to Weather Underground.
This site then downloads the raw data for formatting and display.
Metric and imperial data can be displayed. Graphs and historical data available.
Includes Sun and Moon times and rain image live from BOM.

Check out Ararat Weather on Facebook, Twitter and Google +

Help support ongoing costs by checking out the ads





Follow @AraratWeather